Estación Meteorológica Peña el Pijo (Robertgarden) [ 01/21/21 09:34:33 CET ]

Fecha Hora Presion(HPa) Temp (°C) Humedad % Rocio (°C) Viento ( m/s) Direccion Lluvia 1Hora(mm) Lluvia 24H(mm) LLuvia Total(mm)
2020-Sep-29 01:10:07 1010.900 9.8 57 1.7 - N     89.61
2020-Sep-29 02:09:32 1010.800 8.9 60 1.6 - N     89.61
2020-Sep-29 03:09:33 1010.600 8.9 61 1.8 - N     89.61
2020-Sep-29 04:09:28 1010.500 8.3 63 1.7 - N     89.61
2020-Sep-29 05:09:13 1009.900 7.4 67 1.7 - N     89.61
2020-Sep-29 06:09:22 1009.700 7.0 69 1.7 - N     89.61
2020-Sep-29 07:09:28 1010.100 7.0 72 2.3 - N     89.61
2020-Sep-29 08:09:39 1010.300 6.3 73 1.8 - N     89.61
2020-Sep-29 09:09:23 1010.400 7.5 74 3.2 - N     89.61
2020-Sep-29 10:09:17 1010.600 17.5 49 6.6 - N     89.61
2020-Sep-29 11:09:40 1010.600 22.2 38 7.1 - N     89.61
2020-Sep-29 12:09:33 1010.300 25.6 27 5.0 - N     89.61
2020-Sep-29 13:10:00 1009.900 27.6 22 3.8 - N     89.61
2020-Sep-29 14:09:22 1009.600 27.4 23 4.3 - N     89.61
2020-Sep-29 15:09:59 1008.900 27.4 24 4.8 - N     89.61
2020-Sep-29 16:09:39 1008.400 27.2 24 4.7 - N     89.61
2020-Sep-29 17:09:29 1008.200 26.4 28 6.3 - N     89.61
2020-Sep-29 18:09:46 1008.200 25.0 33 7.6 - N     89.61
2020-Sep-29 19:10:17 1008.500 22.9 40 8.6 - N     89.61
2020-Sep-29 20:09:17 1009.100 20.8 49 9.7 - N     89.61
2020-Sep-29 21:09:42 1009.900 17.6 58 9.2 - N     89.61
2020-Sep-29 22:09:26 1010.400 15.0 61 7.5 - N     89.61
2020-Sep-29 23:09:56 1010.500 13.6 65 7.1 - N     89.61

Temperatura Máxima:27°    Temperatura Mínima:
Presión Máxima:1010.900 Hpa    Presión Mínima:1008.200 Hpa


Volver